Time;durP1;ratioP1;P1;durP2;ratioP2;P2;SDS_P1;SDS_P2;PMS_P1;PMS_P2;Temp;Humidity;BMP_temperature;BMP_pressure;BME280_temperature;BME280_humidity;BME280_pressure;Samples;Min_cycle;Max_cycle;Signal;HPM_P1;HPM_P2
2023/09/30 00:01:21;;;;;;;;;;;;;;;12.04;100.00;102441.81;4933485;29;19939;-96
2023/09/30 00:03:54;;;;;;;;;;;;;;;12.02;100.00;102442.56;4930425;29;20409;-96
2023/09/30 00:06:19;;;;;;;;;;;;;;;11.97;100.00;102451.09;4931458;29;20383;-96
2023/09/30 00:08:45;;;;;;;;;;;;;;;11.93;100.00;102446.56;4934203;29;19919;-96
2023/09/30 00:11:11;;;;;;;;;;;;;;;11.92;100.00;102444.78;4932830;29;19974;-96
2023/09/30 00:13:39;;;;;;;;;;;;;;;11.89;100.00;102448.94;4930448;29;19919;-96
2023/09/30 00:16:08;;;;;;;;;;;;;;;11.91;100.00;102453.41;4929496;29;19983;-96
2023/09/30 00:18:36;;;;;;;;;;;;;;;11.93;100.00;102461.31;4928878;29;19915;-96
2023/09/30 00:21:01;;;;;;;;;;;;;;;11.96;100.00;102451.03;4929871;29;19921;-96
2023/09/30 00:23:27;;;;;;;;;;;;;;;11.97;100.00;102455.44;4932113;29;19915;-96
2023/09/30 00:25:55;;;;;;;;;;;;;;;11.94;100.00;102452.69;4930953;29;19926;-96
2023/09/30 00:28:32;;;;;;;;;;;;;;;11.91;100.00;102453.41;4931294;29;19941;-96
2023/09/30 00:30:57;;;;;;;;;;;;;;;11.90;100.00;102458.59;4931330;29;19914;-96
2023/09/30 00:33:25;;;;;;;;;;;;;;;11.90;100.00;102448.13;4932082;29;19914;-96
2023/09/30 00:35:53;;;;;;;;;;;;;;;11.91;100.00;102439.47;4931586;29;19923;-96
2023/09/30 00:38:24;;;;;;;;;;;;;;;11.93;100.00;102458.72;4930331;29;19915;-96
2023/09/30 00:40:50;;;;;;;;;;;;;;;11.93;100.00;102474.38;4931728;29;19942;-96
2023/09/30 00:43:26;;;;;;;;;;;;;;;11.91;100.00;102479.53;4930829;29;19978;-96
2023/09/30 00:45:57;;;;;;;;;;;;;;;11.92;100.00;102476.13;4928141;29;19921;-96
2023/09/30 00:48:43;;;;;;;;;;;;;;;11.89;100.00;102465.53;4929839;29;19922;-96
2023/09/30 00:51:11;;;;;;;;;;;;;;;11.92;100.00;102465.66;4911694;29;20002;-96
2023/09/30 00:53:36;;;;;;;;;;;;;;;11.95;100.00;102459.72;4910387;29;19915;-96
2023/09/30 00:56:02;;;;;;;;;;;;;;;11.97;100.00;102448.50;4909302;29;20083;-96
2023/09/30 00:58:30;;;;;;;;;;;;;;;11.98;100.00;102465.97;4911477;29;20408;-96
2023/09/30 01:00:57;;;;;;;;;;;;;;;11.98;100.00;102470.31;4912190;29;19922;-96
2023/09/30 01:03:31;;;;;;;;;;;;;;;11.97;100.00;102469.38;4916388;29;20054;-96
2023/09/30 01:06:02;;;;;;;;;;;;;;;12.00;100.00;102472.13;4933720;29;19958;-96
2023/09/30 01:08:29;;;;;;;;;;;;;;;12.01;100.00;102475.66;4935975;29;19915;-96
2023/09/30 01:11:08;;;;;;;;;;;;;;;11.98;100.00;102475.53;4935704;29;19957;-96
2023/09/30 01:13:55;;;;;;;;;;;;;;;11.94;100.00;102474.47;4935466;29;19914;-96
2023/09/30 01:16:26;;;;;;;;;;;;;;;11.93;100.00;102477.00;4934004;29;19925;-96
2023/09/30 01:18:54;;;;;;;;;;;;;;;11.91;100.00;102486.50;4932491;29;19915;-96
2023/09/30 01:21:20;;;;;;;;;;;;;;;11.91;100.00;102484.75;4934263;29;20079;-96
2023/09/30 01:23:51;;;;;;;;;;;;;;;11.88;100.00;102495.09;4933447;29;19918;-96
2023/09/30 01:26:27;;;;;;;;;;;;;;;11.84;100.00;102495.75;4935433;29;19922;-96
2023/09/30 01:29:13;;;;;;;;;;;;;;;11.81;100.00;102511.31;4936023;29;19922;-96
2023/09/30 01:31:39;;;;;;;;;;;;;;;11.79;100.00;102515.56;4936454;29;19915;-96
2023/09/30 01:34:07;;;;;;;;;;;;;;;11.74;100.00;102514.47;4938234;29;19926;-96
2023/09/30 01:36:38;;;;;;;;;;;;;;;11.68;100.00;102516.78;4922475;29;19923;-96
2023/09/30 01:39:07;;;;;;;;;;;;;;;11.62;100.00;102517.41;4922761;29;19927;-96
2023/09/30 01:41:37;;;;;;;;;;;;;;;11.59;100.00;102512.94;4936255;29;19950;-96
2023/09/30 01:44:09;;;;;;;;;;;;;;;11.56;100.00;102502.34;4934807;29;19978;-96
2023/09/30 01:46:46;;;;;;;;;;;;;;;11.56;100.00;102494.50;4935117;29;19922;-96
2023/09/30 01:49:14;;;;;;;;;;;;;;;11.56;100.00;102489.28;4935928;29;19914;-96
2023/09/30 01:51:43;;;;;;;;;;;;;;;11.57;100.00;102488.47;4935680;29;19923;-96
2023/09/30 01:54:18;;;;;;;;;;;;;;;11.59;100.00;102478.97;4935255;29;19997;-96
2023/09/30 01:56:46;;;;;;;;;;;;;;;11.57;100.00;102485.88;4934558;29;19990;-96
2023/09/30 01:59:17;;;;;;;;;;;;;;;11.53;100.00;102489.16;4934943;29;19922;-96
2023/09/30 02:01:46;;;;;;;;;;;;;;;11.50;100.00;102494.25;4936231;29;19915;-96
2023/09/30 02:07:05;;;;;;;;;;;;;;;11.48;100.00;102482.81;4943375;29;19923;-96
2023/09/30 02:09:43;;;;;;;;;;;;;;;11.48;100.00;102501.09;4937553;29;19993;-96
2023/09/30 02:12:12;;;;;;;;;;;;;;;11.45;100.00;102493.13;4937584;29;19939;-96
2023/09/30 02:14:39;;;;;;;;;;;;;;;11.46;100.00;102502.75;4931182;29;19938;-96
2023/09/30 02:17:09;;;;;;;;;;;;;;;11.48;100.00;102508.91;4915593;29;19923;-96
2023/09/30 02:19:42;;;;;;;;;;;;;;;11.48;100.00;102511.53;4914148;29;20440;-96
2023/09/30 02:22:08;;;;;;;;;;;;;;;11.47;100.00;102508.03;4915325;29;19916;-96
2023/09/30 02:24:40;;;;;;;;;;;;;;;11.46;100.00;102506.25;4901259;29;19915;-96
2023/09/30 02:27:12;;;;;;;;;;;;;;;11.47;100.00;102494.06;4897526;29;19922;-96
2023/09/30 02:32:52;;;;;;;;;;;;;;;11.47;100.00;102486.25;4914983;29;19975;-96
2023/09/30 02:35:20;;;;;;;;;;;;;;;11.46;100.00;102492.31;4899473;29;19958;-96
2023/09/30 02:38:15;;;;;;;;;;;;;;;11.45;100.00;102493.13;4898336;29;19923;-96
2023/09/30 02:40:46;;;;;;;;;;;;;;;11.45;100.00;102499.22;4898494;29;20445;-96
2023/09/30 02:43:16;;;;;;;;;;;;;;;11.44;100.00;102504.38;4898230;29;19958;-96
2023/09/30 02:45:59;;;;;;;;;;;;;;;11.42;100.00;102499.09;4910313;29;19945;-96
2023/09/30 02:48:33;;;;;;;;;;;;;;;11.40;100.00;102492.91;4919940;29;19919;-96
2023/09/30 02:51:01;;;;;;;;;;;;;;;11.39;100.00;102492.84;4919022;29;19912;-96
2023/09/30 02:53:42;;;;;;;;;;;;;;;11.37;100.00;102489.25;4927385;29;19981;-96
2023/09/30 02:56:15;;;;;;;;;;;;;;;11.36;100.00;102484.88;4938389;29;19959;-96
2023/09/30 02:58:43;;;;;;;;;;;;;;;11.35;100.00;102486.56;4937399;29;19918;-96
2023/09/30 03:01:20;;;;;;;;;;;;;;;11.36;100.00;102490.09;4938897;29;19915;-96
2023/09/30 03:03:49;;;;;;;;;;;;;;;11.34;100.00;102491.72;4938595;29;19915;-96
2023/09/30 03:06:19;;;;;;;;;;;;;;;11.33;100.00;102498.66;4937444;29;19915;-96
2023/09/30 03:09:05;;;;;;;;;;;;;;;11.33;100.00;102495.16;4940017;29;19915;-96
2023/09/30 03:11:44;;;;;;;;;;;;;;;11.31;100.00;102498.59;4940655;29;19966;-96
2023/09/30 03:14:18;;;;;;;;;;;;;;;11.33;100.00;102496.06;4940068;29;20009;-96
2023/09/30 03:16:46;;;;;;;;;;;;;;;11.35;100.00;102503.94;4940340;29;19993;-96
2023/09/30 03:19:23;;;;;;;;;;;;;;;11.37;100.00;102504.91;4940467;29;19939;-96
2023/09/30 03:21:54;;;;;;;;;;;;;;;11.37;100.00;102499.69;4922751;29;19915;-96
2023/09/30 03:25:06;;;;;;;;;;;;;;;11.38;100.00;102491.03;4922899;29;19922;-96
2023/09/30 03:27:35;;;;;;;;;;;;;;;11.41;100.00;102478.13;4915162;29;20300;-96
2023/09/30 03:30:06;;;;;;;;;;;;;;;11.41;100.00;102480.75;4922261;29;19982;-96
2023/09/30 03:33:10;;;;;;;;;;;;;;;;;;;;;
2023/09/30 03:35:44;;;;;;;;;;;;;;;11.41;100.00;102475.53;4938215;29;19946;-96
2023/09/30 03:38:22;;;;;;;;;;;;;;;11.39;100.00;102478.06;4921914;29;19915;-96
2023/09/30 03:40:54;;;;;;;;;;;;;;;11.40;100.00;102473.75;4921663;29;19915;-96
2023/09/30 03:43:23;;;;;;;;;;;;;;;11.39;100.00;102479.78;4921977;29;19915;-96
2023/09/30 03:45:58;;;;;;;;;;;;;;;11.38;100.00;102483.22;4921209;29;19982;-96
2023/09/30 03:52:01;;;;;;;;;;;;;;;11.34;100.00;102486.50;4938800;29;19939;-96
2023/09/30 03:54:29;;;;;;;;;;;;;;;11.33;100.00;102482.13;4917278;29;19907;-96
2023/09/30 03:57:17;;;;;;;;;;;;;;;11.31;100.00;102482.94;4921433;29;19990;-96
2023/09/30 03:59:50;;;;;;;;;;;;;;;11.28;100.00;102484.50;4891246;29;19972;-96
2023/09/30 04:08:26;;;;;;;;;;;;;;;11.22;100.00;102481.59;4859324;29;19936;-96
2023/09/30 04:10:51;;;;;;;;;;;;;;;11.22;100.00;102490.31;4861378;29;19955;-96
2023/09/30 04:13:56;;;;;;;;;;;;;;;11.20;100.00;102481.53;4860120;29;19901;-96
2023/09/30 04:16:28;;;;;;;;;;;;;;;11.20;100.00;102481.53;4878493;29;20004;-96
2023/09/30 04:19:22;;;;;;;;;;;;;;;11.18;100.00;102488.41;4880683;29;19916;-96
2023/09/30 04:22:03;;;;;;;;;;;;;;;11.18;100.00;102487.50;4884853;29;19916;-96
2023/09/30 04:25:06;;;;;;;;;;;;;;;11.15;100.00;102475.19;4883258;29;19915;-96
2023/09/30 04:28:32;;;;;;;;;;;;;;;11.13;100.00;102472.50;4811188;29;19917;-96
2023/09/30 04:31:23;;;;;;;;;;;;;;;11.13;100.00;102476.84;4832424;29;19916;-96
2023/09/30 04:37:20;;;;;;;;;;;;;;;11.09;100.00;102483.63;4940030;29;19944;-96
2023/09/30 04:40:06;;;;;;;;;;;;;;;11.10;100.00;102492.34;4923454;29;19907;-96
2023/09/30 04:46:02;;;;;;;;;;;;;;;11.09;100.00;102493.16;4940521;29;19922;-96
2023/09/30 04:52:26;;;;;;;;;;;;;;;11.07;100.00;102500.03;4918515;29;19930;-96
2023/09/30 04:58:19;;;;;;;;;;;;;;;11.03;100.00;102500.69;4918956;29;19934;-96
2023/09/30 05:01:00;;;;;;;;;;;;;;;11.03;100.00;102506.78;4903349;29;19953;-96
2023/09/30 05:03:33;;;;;;;;;;;;;;;11.02;100.00;102504.13;4901594;29;19915;-96
2023/09/30 05:06:47;;;;;;;;;;;;;;;;;;;;;
2023/09/30 05:15:38;;;;;;;;;;;;;;;10.95;100.00;102511.66;4899718;29;20389;-96
2023/09/30 05:18:28;;;;;;;;;;;;;;;10.96;100.00;102508.22;4888705;29;19935;-96
2023/09/30 05:21:37;;;;;;;;;;;;;;;;;;;;;
2023/09/30 05:24:11;;;;;;;;;;;;;;;10.93;100.00;102509.78;4936699;29;19946;-96
2023/09/30 05:26:51;;;;;;;;;;;;;;;10.92;100.00;102515.81;4924981;29;19927;-96
2023/09/30 05:32:39;;;;;;;;;;;;;;;10.87;100.00;102518.19;4939078;29;19987;-96
2023/09/30 05:35:28;;;;;;;;;;;;;;;10.84;100.00;102512.84;4922975;29;19966;-96
2023/09/30 05:41:13;;;;;;;;;;;;;;;10.79;100.00;102524.75;4954505;29;19963;-96
2023/09/30 05:46:52;;;;;;;;;;;;;;;10.80;100.00;102531.75;4963442;29;19966;-96
2023/09/30 05:49:25;;;;;;;;;;;;;;;10.80;100.00;102529.13;4961637;29;19914;-96
2023/09/30 05:55:31;;;;;;;;;;;;;;;10.83;100.00;102526.69;4978878;29;19919;-96
2023/09/30 05:58:07;;;;;;;;;;;;;;;10.85;100.00;102525.06;4957116;29;19919;-96
2023/09/30 06:00:44;;;;;;;;;;;;;;;10.85;100.00;102530.28;4958458;29;19914;-96
2023/09/30 06:03:21;;;;;;;;;;;;;;;10.85;100.00;102539.78;4959016;29;19899;-96
2023/09/30 06:05:56;;;;;;;;;;;;;;;10.83;100.00;102538.84;4952700;29;19914;-96
2023/09/30 06:08:24;;;;;;;;;;;;;;;10.85;100.00;102535.50;4937700;29;19919;-96
2023/09/30 06:10:59;;;;;;;;;;;;;;;10.87;100.00;102533.84;4954742;29;19989;-96
2023/09/30 06:13:35;;;;;;;;;;;;;;;10.86;100.00;102538.97;4940665;29;19922;-96
2023/09/30 06:16:26;;;;;;;;;;;;;;;10.87;100.00;102536.44;4939963;29;19922;-96
2023/09/30 06:19:04;;;;;;;;;;;;;;;10.87;100.00;102536.44;4940036;29;19918;-96
2023/09/30 06:21:43;;;;;;;;;;;;;;;10.89;100.00;102529.63;4939450;29;19996;-96
2023/09/30 06:24:29;;;;;;;;;;;;;;;10.92;100.00;102534.97;4922349;29;19923;-96
2023/09/30 06:26:54;;;;;;;;;;;;;;;10.93;100.00;102526.34;4954392;29;19965;-96
2023/09/30 06:29:47;;;;;;;;;;;;;;;10.95;100.00;102531.63;4954462;29;19915;-96
2023/09/30 06:32:18;;;;;;;;;;;;;;;10.99;100.00;102530.06;4957599;29;19921;-96
2023/09/30 06:38:09;;;;;;;;;;;;;;;;;;;;;
2023/09/30 06:41:14;;;;;;;;;;;;;;;;;;;;;
2023/09/30 06:44:01;;;;;;;;;;;;;;;;;;;;;
2023/09/30 06:46:54;;;;;;;;;;;;;;;11.10;100.00;102537.59;4935469;29;20514;-96
2023/09/30 06:49:47;;;;;;;;;;;;;;;11.12;100.00;102543.78;4920168;29;19915;-96
2023/09/30 06:52:29;;;;;;;;;;;;;;;;;;;;;
2023/09/30 06:55:17;;;;;;;;;;;;;;;11.13;100.00;102557.72;4936779;29;19955;-96
2023/09/30 06:57:54;;;;;;;;;;;;;;;11.15;100.00;102561.28;4920438;29;20012;-96
2023/09/30 07:00:25;;;;;;;;;;;;;;;11.19;100.00;102573.66;4919518;29;19911;-96
2023/09/30 07:02:56;;;;;;;;;;;;;;;11.21;100.00;102577.25;4919222;29;19915;-96
2023/09/30 07:05:42;;;;;;;;;;;;;;;11.27;100.00;102580.16;4920235;29;20000;-96
2023/09/30 07:08:31;;;;;;;;;;;;;;;11.33;100.00;102586.50;4918300;29;19923;-96
2023/09/30 07:11:07;;;;;;;;;;;;;;;11.36;100.00;102584.03;4936873;29;19930;-96
2023/09/30 07:13:48;;;;;;;;;;;;;;;11.42;100.00;102586.94;4934482;29;19926;-96
2023/09/30 07:16:17;;;;;;;;;;;;;;;11.47;100.00;102591.56;4917592;29;19965;-96
2023/09/30 07:18:48;;;;;;;;;;;;;;;11.54;100.00;102586.63;4917975;29;19947;-96
2023/09/30 07:21:31;;;;;;;;;;;;;;;11.58;100.00;102586.84;4915895;29;19915;-96
2023/09/30 07:24:15;;;;;;;;;;;;;;;11.63;100.00;102587.09;4914510;29;19915;-96
2023/09/30 07:26:41;;;;;;;;;;;;;;;11.66;100.00;102598.56;4917126;29;19980;-96
2023/09/30 07:29:12;;;;;;;;;;;;;;;11.70;100.00;102610.03;4913625;29;20377;-96
2023/09/30 07:31:53;;;;;;;;;;;;;;;11.74;100.00;102621.53;4929982;29;20010;-96
2023/09/30 07:34:38;;;;;;;;;;;;;;;11.80;100.00;102629.63;4914857;29;19915;-96
2023/09/30 07:37:07;;;;;;;;;;;;;;;11.89;100.00;102637.94;4915944;29;20018;-96
2023/09/30 07:39:51;;;;;;;;;;;;;;;11.99;100.00;102645.41;4916363;29;19915;-96
2023/09/30 07:42:24;;;;;;;;;;;;;;;12.09;100.00;102646.72;4916932;29;19978;-96
2023/09/30 07:44:51;;;;;;;;;;;;;;;12.21;100.00;102641.19;4915827;29;19916;-96
2023/09/30 07:47:19;;;;;;;;;;;;;;;12.31;100.00;102645.09;4922597;29;19918;-96
2023/09/30 07:49:53;;;;;;;;;;;;;;;12.42;100.00;102635.13;4933842;29;19915;-96
2023/09/30 07:52:24;;;;;;;;;;;;;;;12.49;100.00;102634.56;4917369;29;19986;-96
2023/09/30 07:54:52;;;;;;;;;;;;;;;12.57;100.00;102635.81;4932764;29;19918;-96
2023/09/30 07:57:26;;;;;;;;;;;;;;;12.63;100.00;102624.72;4933958;29;19927;-96
2023/09/30 08:00:07;;;;;;;;;;;;;;;12.72;100.00;102621.63;4933593;29;19953;-96
2023/09/30 08:02:53;;;;;;;;;;;;;;;12.77;100.00;102620.97;4922400;29;19915;-96
2023/09/30 08:05:22;;;;;;;;;;;;;;;12.83;100.00;102625.56;4915946;29;19915;-96
2023/09/30 08:08:11;;;;;;;;;;;;;;;12.91;100.00;102625.94;4915774;29;20710;-96
2023/09/30 08:10:36;;;;;;;;;;;;;;;12.96;100.00;102630.53;4915050;29;19974;-96
2023/09/30 08:13:02;;;;;;;;;;;;;;;13.00;100.00;102611.47;4915105;29;19915;-96
2023/09/30 08:15:51;;;;;;;;;;;;;;;13.07;100.00;102609.16;4913994;29;19923;-96
2023/09/30 08:18:22;;;;;;;;;;;;;;;13.14;100.00;102612.06;4912162;29;19923;-96
2023/09/30 08:21:02;;;;;;;;;;;;;;;13.19;100.00;102610.56;4913819;29;19939;-96
2023/09/30 08:23:31;;;;;;;;;;;;;;;13.28;100.00;102615.28;4914384;29;19931;-96
2023/09/30 08:26:04;;;;;;;;;;;;;;;13.37;100.00;102613.06;4913657;29;19911;-96
2023/09/30 08:28:30;;;;;;;;;;;;;;;13.44;100.00;102608.06;4912171;29;19922;-96
2023/09/30 08:31:02;;;;;;;;;;;;;;;13.54;100.00;102604.97;4917232;29;20348;-96
2023/09/30 08:33:43;;;;;;;;;;;;;;;13.67;100.00;102598.50;4933990;29;19925;-96
2023/09/30 08:36:11;;;;;;;;;;;;;;;13.77;100.00;102603.25;4933573;29;19919;-96
2023/09/30 08:38:44;;;;;;;;;;;;;;;13.86;100.00;102603.63;4932665;29;19922;-96
2023/09/30 08:41:34;;;;;;;;;;;;;;;13.90;100.00;102604.63;4933738;29;19914;-96
2023/09/30 08:44:03;;;;;;;;;;;;;;;13.96;100.00;102594.41;4933476;29;19914;-96
2023/09/30 08:46:47;;;;;;;;;;;;;;;14.00;100.00;102595.38;4931061;29;19939;-96
2023/09/30 08:49:14;;;;;;;;;;;;;;;14.02;100.00;102591.09;4933346;29;19922;-96
2023/09/30 08:52:02;;;;;;;;;;;;;;;14.05;100.00;102586.88;4931990;29;19914;-96
2023/09/30 08:54:33;;;;;;;;;;;;;;;14.12;100.00;102593.25;4922943;29;19950;-96
2023/09/30 08:57:10;;;;;;;;;;;;;;;14.16;100.00;102591.59;4916250;29;19927;-96
2023/09/30 08:59:44;;;;;;;;;;;;;;;14.24;100.00;102598.03;4930567;29;19915;-96
2023/09/30 09:02:22;;;;;;;;;;;;;;;14.33;100.00;102584.38;4931960;29;19915;-96
2023/09/30 09:05:11;;;;;;;;;;;;;;;14.36;100.00;102590.59;4931972;29;19942;-96
2023/09/30 09:07:44;;;;;;;;;;;;;;;14.42;100.00;102608.28;4930800;29;19966;-96
2023/09/30 09:10:15;;;;;;;;;;;;;;;14.47;100.00;102604.13;4945100;29;19953;-96
2023/09/30 09:13:03;;;;;;;;;;;;;;;14.53;100.00;102613.94;4949434;29;19915;-96
2023/09/30 09:15:31;;;;;;;;;;;;;;;14.59;100.00;102619.41;4935058;29;20017;-96
2023/09/30 09:17:59;;;;;;;;;;;;;;;14.67;100.00;102624.94;4950521;29;19925;-96
2023/09/30 09:20:34;;;;;;;;;;;;;;;14.77;100.00;102625.31;4951297;29;19914;-96
2023/09/30 09:23:06;;;;;;;;;;;;;;;14.89;100.00;102629.22;4939092;29;19939;-96
2023/09/30 09:25:43;;;;;;;;;;;;;;;14.95;100.00;102624.19;4935939;29;19949;-96
2023/09/30 09:28:09;;;;;;;;;;;;;;;15.07;100.00;102637.69;4939045;29;19915;-96
2023/09/30 09:30:59;;;;;;;;;;;;;;;15.20;100.00;102646.00;4942422;29;19923;-96
2023/09/30 09:33:45;;;;;;;;;;;;;;;15.24;100.00;102650.53;4944793;29;19915;-96
2023/09/30 09:36:17;;;;;;;;;;;;;;;15.29;100.00;102660.34;4940556;29;19923;-96
2023/09/30 09:38:56;;;;;;;;;;;;;;;;;;;;;
2023/09/30 09:41:33;;;;;;;;;;;;;;;15.37;100.00;102650.09;4958632;29;19946;-96
2023/09/30 09:44:07;;;;;;;;;;;;;;;15.49;100.00;102662.72;4943421;29;19983;-96
2023/09/30 09:49:40;;;;;;;;;;;;;;;15.89;100.00;102661.41;4961939;28;19931;-96
2023/09/30 09:52:31;;;;;;;;;;;;;;;16.09;100.00;102661.09;4943545;29;19919;-96
2023/09/30 09:55:08;;;;;;;;;;;;;;;16.19;100.00;102663.16;4944275;29;19978;-96
2023/09/30 09:57:33;;;;;;;;;;;;;;;16.27;100.00;102659.00;4943782;29;20064;-96
2023/09/30 10:00:18;;;;;;;;;;;;;;;;;;;;;
2023/09/30 10:02:50;;;;;;;;;;;;;;;16.67;100.00;102661.91;4886463;29;19939;-96
2023/09/30 10:28:44;;;;;;;;;;;;;;;;;;;;;
2023/09/30 10:31:25;;;;;;;;;;;;;;;17.38;93.34;102655.88;4956531;28;19953;-96
2023/09/30 10:37:15;;;;;;;;;;;;;;;17.27;90.61;102649.44;4980782;28;19909;-96
2023/09/30 10:40:03;;;;;;;;;;;;;;;17.15;93.67;102636.84;4965280;29;19903;-96
2023/09/30 10:42:50;;;;;;;;;;;;;;;17.37;92.65;102644.41;4963415;29;19898;-96
2023/09/30 10:45:51;;;;;;;;;;;;;;;17.47;92.04;102636.75;4961607;29;20335;-96
2023/09/30 10:51:43;;;;;;;;;;;;;;;17.48;89.16;102630.59;4945886;29;19903;-96
2023/09/30 10:57:32;;;;;;;;;;;;;;;17.87;89.94;102627.09;4978696;29;19918;-96
2023/09/30 11:00:30;;;;;;;;;;;;;;;17.96;89.05;102615.88;4943207;29;19914;-96
2023/09/30 11:03:15;;;;;;;;;;;;;;;17.85;91.40;102610.38;4926963;29;19918;-96
2023/09/30 11:05:47;;;;;;;;;;;;;;;17.73;93.31;102606.59;4956550;29;19914;-96
2023/09/30 11:08:21;;;;;;;;;;;;;;;17.71;91.53;102617.97;4940277;29;19915;-96
2023/09/30 11:11:09;;;;;;;;;;;;;;;17.85;90.85;102616.53;4943028;29;19915;-96
2023/09/30 11:13:34;;;;;;;;;;;;;;;18.02;87.92;102609.00;4943194;29;19914;-96
2023/09/30 11:16:22;;;;;;;;;;;;;;;17.96;84.84;102616.81;4942784;29;19934;-96
2023/09/30 11:18:57;;;;;;;;;;;;;;;17.89;86.39;102613.09;4958167;29;19922;-96
2023/09/30 11:21:25;;;;;;;;;;;;;;;17.82;88.02;102613.81;4940633;29;19915;-96
2023/09/30 11:23:56;;;;;;;;;;;;;;;17.73;88.44;102621.53;4938157;29;19958;-96
2023/09/30 11:29:32;;;;;;;;;;;;;;;17.61;87.76;102610.69;4956948;29;19930;-96
2023/09/30 11:32:46;;;;;;;;;;;;;;;17.70;87.10;102603.91;4953329;28;19918;-96
2023/09/30 11:35:32;;;;;;;;;;;;;;;17.89;86.03;102604.31;4867787;29;19921;-96
2023/09/30 11:38:29;;;;;;;;;;;;;;;18.12;84.73;102604.81;4882204;29;19916;-96
2023/09/30 11:41:25;;;;;;;;;;;;;;;18.15;86.52;102604.88;4882245;29;20000;-96
2023/09/30 11:44:14;;;;;;;;;;;;;;;18.11;87.07;102594.25;4868002;29;19991;-96
2023/09/30 11:46:57;;;;;;;;;;;;;;;18.04;87.08;102588.81;4932099;29;19922;-96
2023/09/30 11:49:34;;;;;;;;;;;;;;;17.97;88.19;102588.66;4920127;29;19919;-96
2023/09/30 11:52:07;;;;;;;;;;;;;;;17.92;88.25;102590.34;4916646;29;19919;-96
2023/09/30 11:54:40;;;;;;;;;;;;;;;17.89;88.75;102591.13;4917262;29;19996;-96
2023/09/30 11:57:21;;;;;;;;;;;;;;;17.87;88.51;102593.72;4921789;29;19954;-96
2023/09/30 12:00:13;;;;;;;;;;;;;;;17.87;82.46;102596.38;4940976;28;19907;-96
2023/09/30 12:03:03;;;;;;;;;;;;;;;17.78;81.94;102608.44;4954161;29;19922;-96
2023/09/30 12:05:46;;;;;;;;;;;;;;;;;;;;;
2023/09/30 12:08:19;;;;;;;;;;;;;;;17.93;82.02;102597.38;4942559;29;19949;-96
2023/09/30 12:21:13;;;;;;;;;;;;;;;18.20;82.02;102587.38;5623699;23;20292;-96
2023/09/30 12:23:41;;;;;;;;;;;;;;;18.15;82.88;102582.91;4955963;29;19977;-96
2023/09/30 12:26:41;;;;;;;;;;;;;;;18.12;82.29;102577.53;4959995;29;19942;-96
2023/09/30 12:32:28;;;;;;;;;;;;;;;18.40;82.86;102560.50;4949780;29;19915;-96
2023/09/30 12:35:04;;;;;;;;;;;;;;;18.55;81.36;102552.88;4941212;29;19919;-96
2023/09/30 12:37:33;;;;;;;;;;;;;;;18.64;80.59;102552.16;4956454;29;19919;-96
2023/09/30 12:40:02;;;;;;;;;;;;;;;18.70;82.12;102554.88;4954197;29;19958;-96
2023/09/30 12:42:47;;;;;;;;;;;;;;;18.74;81.62;102547.88;4954254;29;19906;-96
2023/09/30 12:48:39;;;;;;;;;;;;;;;19.00;80.67;102550.13;4974938;29;19928;-96
2023/09/30 12:51:06;;;;;;;;;;;;;;;19.21;79.58;102554.84;4961342;29;19950;-96
2023/09/30 13:02:18;;;;;;;;;;;;;;;19.49;77.51;102549.97;5912725;23;19915;-96
2023/09/30 13:05:23;;;;;;;;;;;;;;;19.46;78.56;102545.50;4943968;29;19914;-97
2023/09/30 13:07:57;;;;;;;;;;;;;;;19.39;75.31;102549.84;4959433;29;19905;-96
2023/09/30 13:10:25;;;;;;;;;;;;;;;19.29;76.85;102539.97;4943745;28;19947;-96
2023/09/30 13:13:01;;;;;;;;;;;;;;;19.24;75.35;102531.13;4945779;29;19915;-96
2023/09/30 13:15:34;;;;;;;;;;;;;;;19.21;75.70;102531.94;4943029;29;19954;-96
2023/09/30 13:18:14;;;;;;;;;;;;;;;19.16;76.14;102541.56;4925291;29;19974;-96
2023/09/30 13:20:52;;;;;;;;;;;;;;;19.14;74.96;102538.00;4920686;29;19951;-96
2023/09/30 13:23:20;;;;;;;;;;;;;;;19.10;74.72;102544.09;4913638;29;19943;-96
2023/09/30 13:26:00;;;;;;;;;;;;;;;19.10;76.77;102547.66;4918720;29;19923;-96
2023/09/30 13:28:34;;;;;;;;;;;;;;;19.14;75.63;102537.13;4906493;29;19940;-96
2023/09/30 13:31:02;;;;;;;;;;;;;;;19.17;74.67;102555.66;4921595;28;19923;-96
2023/09/30 13:33:52;;;;;;;;;;;;;;;19.18;74.97;102550.41;4921217;29;19915;-96
2023/09/30 13:36:22;;;;;;;;;;;;;;;19.17;76.69;102542.47;4915876;29;19930;-96
2023/09/30 13:39:05;;;;;;;;;;;;;;;19.13;76.87;102548.56;4912432;29;19922;-96
2023/09/30 13:41:36;;;;;;;;;;;;;;;19.07;76.42;102529.13;4915008;29;19959;-96
2023/09/30 13:44:01;;;;;;;;;;;;;;;19.08;76.59;102516.78;4916044;29;19920;-96
2023/09/30 13:46:32;;;;;;;;;;;;;;;19.04;77.20;102509.66;4915697;29;19981;-96
2023/09/30 13:49:13;;;;;;;;;;;;;;;18.99;76.58;102501.69;4916010;29;19923;-96
2023/09/30 13:51:44;;;;;;;;;;;;;;;18.94;77.19;102512.19;4918362;29;19966;-96
2023/09/30 13:54:11;;;;;;;;;;;;;;;18.91;77.15;102508.59;4922287;29;19915;-96
2023/09/30 13:56:42;;;;;;;;;;;;;;;18.89;77.07;102513.84;4916808;29;19982;-96
2023/09/30 13:59:28;;;;;;;;;;;;;;;18.96;77.23;102511.28;4933239;29;19922;-96
2023/09/30 14:02:00;;;;;;;;;;;;;;;19.09;77.06;102513.28;4935977;29;19915;-96
2023/09/30 14:04:25;;;;;;;;;;;;;;;19.16;74.56;102512.50;4935611;29;19923;-96
2023/09/30 14:06:52;;;;;;;;;;;;;;;19.22;76.29;102504.66;4936269;29;19919;-96
2023/09/30 14:09:18;;;;;;;;;;;;;;;19.38;75.62;102518.06;4939889;29;19915;-96
2023/09/30 14:11:47;;;;;;;;;;;;;;;19.48;72.96;102514.72;4938745;29;19915;-96
2023/09/30 14:14:24;;;;;;;;;;;;;;;19.39;70.80;102509.28;4939049;29;19925;-96
2023/09/30 14:16:54;;;;;;;;;;;;;;;19.25;72.52;102499.41;4939408;29;19926;-96
2023/09/30 14:19:33;;;;;;;;;;;;;;;19.26;74.57;102495.91;4939190;29;19994;-96
2023/09/30 14:22:01;;;;;;;;;;;;;;;19.39;73.51;102499.63;4938583;29;19922;-96
2023/09/30 14:24:29;;;;;;;;;;;;;;;19.56;72.83;102501.59;4939594;29;19962;-96
2023/09/30 14:27:02;;;;;;;;;;;;;;;19.58;74.23;102492.81;4938097;29;19915;-96
2023/09/30 14:29:29;;;;;;;;;;;;;;;19.60;73.43;102485.78;4936333;29;19957;-96
2023/09/30 14:31:54;;;;;;;;;;;;;;;19.57;73.42;102487.50;4937698;29;19899;-96
2023/09/30 14:34:23;;;;;;;;;;;;;;;19.57;70.57;102482.22;4938979;29;19938;-96
2023/09/30 14:36:52;;;;;;;;;;;;;;;19.45;70.04;102486.47;4883803;29;19923;-96
2023/09/30 14:39:26;;;;;;;;;;;;;;;19.34;70.35;102488.09;4879430;29;19923;-96
2023/09/30 14:41:51;;;;;;;;;;;;;;;19.33;71.66;102490.72;4877914;29;19928;-96
2023/09/30 14:44:21;;;;;;;;;;;;;;;19.28;72.93;102478.31;4875442;29;19947;-96
2023/09/30 14:46:47;;;;;;;;;;;;;;;19.26;73.32;102480.06;4876792;29;20414;-96
2023/09/30 14:49:25;;;;;;;;;;;;;;;19.23;73.47;102479.13;4875083;29;19916;-96
2023/09/30 14:51:56;;;;;;;;;;;;;;;19.21;72.71;102480.84;4875760;29;20009;-96
2023/09/30 14:54:22;;;;;;;;;;;;;;;19.13;73.59;102483.38;4874334;29;19920;-96
2023/09/30 14:56:52;;;;;;;;;;;;;;;19.08;72.71;102472.75;4871285;29;19952;-96
2023/09/30 14:59:23;;;;;;;;;;;;;;;19.03;73.96;102465.63;4871053;29;19916;-96
2023/09/30 15:01:52;;;;;;;;;;;;;;;18.98;72.71;102467.31;4870123;29;19916;-96
2023/09/30 15:04:20;;;;;;;;;;;;;;;18.94;71.93;102461.09;4870802;29;20005;-96
2023/09/30 15:07:03;;;;;;;;;;;;;;;18.89;72.17;102463.66;4877800;29;19976;-96
2023/09/30 15:09:29;;;;;;;;;;;;;;;18.84;71.58;102457.41;4931440;29;19997;-96
2023/09/30 15:12:03;;;;;;;;;;;;;;;18.78;72.78;102454.66;4930670;29;19943;-96
2023/09/30 15:14:36;;;;;;;;;;;;;;;18.79;72.42;102450.28;4928657;29;19922;-96
2023/09/30 15:17:07;;;;;;;;;;;;;;;18.70;73.47;102451.91;4928843;29;19919;-96
2023/09/30 15:19:33;;;;;;;;;;;;;;;18.67;74.46;102456.22;4929728;29;19921;-96
2023/09/30 15:21:58;;;;;;;;;;;;;;;18.70;74.76;102457.19;4927816;29;20005;-96
2023/09/30 15:24:24;;;;;;;;;;;;;;;18.69;75.03;102460.69;4928522;29;19921;-96